Orondo, Washington
Current Conditions -  °F | °C
As of 9:55 AM on Friday 31 Oct 2014 (Local Time) from KEAT Reporting Station
Overcast Overcast  
Wind Chill: 52°   Ceiling: 1000
Heat Index: 52°   Visibility: 10mi
Dew Point: 48°   Wind: 8mph
Humidity: 86%   Direction: 130°SE
Pressure: 29.71"   Gusts: NA
Location:  47.63°N, 120.22°W
Report Text: KEAT 311655Z AUTO 13007KT 10SM OVC010 11/09 A2971 RMK AO2 SLP063 T01110089
Loading
Personal Weather Stations






























Interactive Weather Map New forecast layout! Learn more

10-Day Weather Forecast

Advertisements
Track Severe Weather on mobile